Date,TemperatureHighF,TemperatureAvgF,TemperatureLowF,DewpointHighF,DewpointAvgF,DewpointLowF,HumidityHigh,HumidityAvg,HumidityLow,PressureMaxIn,PressureMinIn,WindSpeedMaxMPH,WindSpeedAvgMPH,GustSpeedMaxMPH,PrecipitationSumIn
2013-1-1,78.0,69.8,60.0,66.0,63.0,59.0,99,80,64,30.21,30.06,8,2,16,0.00
2013-1-2,82.0,70.0,58.0,69.0,64.6,57.0,100,85,60,30.10,30.00,4,1,12,0.00
2013-1-3,84.0,72.7,64.0,71.0,67.7,63.0,100,86,60,30.14,30.03,4,1,11,0.00
2013-1-4,83.0,71.2,64.0,73.0,68.4,63.0,100,91,71,30.24,30.11,5,1,9,0.00
2013-1-5,76.0,69.8,65.0,72.0,67.8,64.0,98,94,82,30.26,30.17,5,1,10,0.00
2013-1-6,82.0,71.5,63.0,75.0,68.6,63.0,100,91,71,30.21,30.06,7,1,15,0.00
2013-1-7,78.0,72.1,67.0,72.0,69.7,66.0,99,93,79,30.17,30.09,5,2,13,0.01
2013-1-8,81.0,73.7,70.0,76.0,71.5,69.0,100,93,80,30.21,30.09,7,2,14,0.59
2013-1-9,81.0,76.4,72.0,74.0,72.4,71.0,99,87,78,30.29,30.17,8,4,19,0.06
2013-1-10,79.0,75.1,72.0,72.0,69.2,66.0,91,82,64,30.30,30.19,11,4,23,0.02
2013-1-11,78.0,74.5,73.0,72.0,70.0,67.0,95,86,77,30.27,30.16,9,3,17,0.07
2013-1-12,81.0,74.3,68.0,71.0,68.2,66.0,93,81,68,30.19,30.10,6,2,13,0.01
2013-1-13,80.0,74.3,69.0,71.0,67.8,64.0,90,80,71,30.14,30.08,6,3,14,0.00
2013-1-14,79.0,72.5,64.0,70.0,66.8,63.0,98,83,70,30.18,30.13,6,1,14,0.00
2013-1-15,76.0,71.4,64.0,70.0,67.7,62.0,98,88,80,30.15,30.06,7,2,14,0.01
2013-1-16,81.0,71.2,60.0,72.0,67.0,60.0,100,88,71,30.12,30.02,5,1,11,0.01
2013-1-17,81.0,71.8,61.0,73.0,67.2,55.0,99,86,72,30.09,29.97,8,3,20,0.02
2013-1-18,73.0,62.6,51.0,62.0,54.8,47.0,88,76,64,30.25,30.09,8,3,14,0.02
2013-1-19,72.0,67.4,64.0,69.0,64.9,59.0,99,92,78,30.23,30.11,3,1,8,0.12
2013-1-20,80.0,70.0,62.0,72.0,67.2,62.0,100,91,72,30.15,30.02,6,1,14,0.02
2013-1-21,79.0,71.0,64.0,72.0,68.2,64.0,100,91,75,30.08,29.97,3,1,9,0.02
2013-1-22,75.0,67.4,61.0,64.0,60.4,55.0,98,79,63,30.23,30.01,6,3,15,0.01
2013-1-23,75.0,65.6,59.0,63.0,57.7,54.0,88,76,54,30.31,30.21,6,2,13,0.00
2013-1-24,77.0,65.2,57.0,57.0,53.9,46.0,93,69,42,30.31,30.21,7,1,14,0.00
2013-1-25,77.0,64.6,55.0,63.0,57.4,52.0,97,79,57,30.30,30.19,5,1,11,0.00
2013-1-26,80.0,66.0,56.0,62.0,57.9,53.0,99,78,48,30.27,30.16,5,1,10,0.00
2013-1-27,79.0,68.8,57.0,65.0,60.4,56.0,98,77,52,30.30,30.22,7,2,14,0.01
2013-1-28,80.0,73.7,69.0,70.0,66.3,63.0,89,78,66,30.33,30.23,7,3,16,0.01
2013-1-29,78.0,73.6,70.0,72.0,69.5,66.0,98,87,74,30.25,30.13,6,3,15,0.10
2013-1-30,80.0,73.8,68.0,70.0,67.3,65.0,92,80,69,30.14,29.97,10,4,22,0.02
2013-1-31,71.0,63.6,56.0,69.0,55.5,44.0,95,75,58,30.20,29.99,5,2,13,0.02
2013-2-1,73.0,60.6,50.0,60.0,50.1,40.0,83,69,58,30.29,30.18,6,2,19,0.02
2013-2-2,75.0,61.5,53.0,58.0,50.6,41.0,94,69,48,30.28,30.14,5,1,11,0.00
2013-2-3,75.0,61.0,52.0,55.0,50.3,41.0,98,73,31,30.19,30.08,5,1,11,0.00
2013-2-4,76.0,61.1,47.0,57.0,49.8,44.0,95,70,37,30.16,30.04,7,1,17,0.00
2013-2-5,80.0,65.0,51.0,64.0,57.7,50.0,99,80,45,30.10,30.01,6,1,11,0.00
2013-2-6,79.0,68.1,57.0,69.0,62.8,56.0,100,84,70,30.12,30.03,6,1,13,0.00
2013-2-7,82.0,71.6,60.0,70.0,65.7,59.0,99,82,59,30.09,29.95,7,2,13,0.00
2013-2-8,83.0,72.8,64.0,71.0,67.0,62.0,98,83,52,30.04,29.93,6,2,13,0.00
2013-2-9,80.0,70.5,62.0,69.0,64.5,62.0,100,82,62,30.18,30.03,7,3,17,0.00
2013-2-10,75.0,71.3,67.0,65.0,63.6,61.0,90,77,69,30.28,30.16,8,4,18,0.04
2013-2-11,78.0,71.7,63.0,68.0,65.1,61.0,94,80,68,30.23,30.11,7,2,15,0.01
2013-2-12,86.0,72.6,60.0,71.0,66.6,59.0,100,83,54,30.13,29.97,8,2,14,0.00
2013-2-13,87.0,76.0,67.0,74.0,70.2,66.0,100,84,61,30.02,29.88,8,3,17,0.00
2013-2-14,76.0,68.0,63.0,73.0,67.2,63.0,100,98,91,30.02,29.88,9,1,17,1.54
2013-2-15,72.0,65.7,63.0,70.0,65.1,63.0,100,98,89,30.04,29.95,4,1,9,0.49
2013-2-16,71.0,64.5,55.0,64.0,57.9,44.0,99,81,53,30.09,29.89,11,4,21,0.01
2013-2-17,60.0,51.1,44.0,46.0,33.6,23.0,72,53,28,30.32,30.09,6,3,20,0.00
2013-2-18,69.0,58.3,45.0,57.0,45.6,32.0,74,63,53,30.35,30.24,10,4,18,0.00
2013-2-19,78.0,69.1,54.0,68.0,62.1,53.0,98,80,64,30.23,30.09,6,2,15,0.01
2013-2-20,80.0,70.1,61.0,68.0,65.4,61.0,100,86,65,30.13,30.02,6,1,12,0.01
2013-2-21,80.0,70.8,60.0,71.0,66.2,59.0,100,87,67,30.11,30.01,6,2,13,0.01
2013-2-22,81.0,74.1,65.0,73.0,69.8,64.0,100,87,76,30.11,30.03,7,3,17,0.00
2013-2-23,84.0,76.2,71.0,75.0,71.7,68.0,97,86,71,30.05,29.91,6,3,15,0.13
2013-2-24,89.0,77.6,71.0,74.0,71.3,68.0,100,83,51,30.01,29.89,6,2,12,0.13
2013-2-25,83.0,74.8,67.0,75.0,71.4,66.0,100,90,72,29.92,29.83,6,2,14,0.39
2013-2-26,86.0,78.2,73.0,75.0,72.3,70.0,96,83,63,29.89,29.80,9,4,24,0.39
2013-2-27,76.0,69.6,63.0,74.0,65.8,62.0,99,88,70,29.97,29.87,6,2,12,0.30
2013-2-28,73.0,63.7,58.0,63.0,55.9,51.0,98,77,48,30.02,29.91,6,2,13,0.16
2013-3-1,65.0,61.3,58.0,58.0,52.6,48.0,86,73,65,30.00,29.91,4,2,10,0.00
2013-3-2,66.0,57.6,50.0,51.0,44.7,38.0,83,63,44,30.04,29.97,9,3,21,0.00
2013-3-3,62.0,53.4,47.0,45.0,42.5,38.0,84,67,51,30.16,29.98,9,4,19,0.00
2013-3-4,68.0,53.3,41.0,47.0,39.4,33.0,94,63,29,30.24,30.14,7,2,16,0.00
2013-3-5,77.0,61.8,46.0,61.0,54.1,45.0,99,78,54,30.20,30.09,6,2,15,0.00
2013-3-6,76.0,64.3,54.0,65.0,53.2,36.0,97,71,34,30.11,29.96,10,5,21,0.00
2013-3-7,72.0,58.2,47.0,57.0,47.4,38.0,95,69,43,30.20,30.09,5,2,15,0.00
2013-3-8,77.0,61.9,50.0,57.0,52.2,46.0,97,74,34,30.23,30.12,6,1,12,0.00
2013-3-9,75.0,63.7,51.0,61.0,55.7,50.0,98,77,57,30.21,30.12,7,2,14,0.00
2013-3-10,75.0,69.4,63.0,62.0,58.6,55.0,81,69,56,30.18,30.09,9,4,16,0.00
2013-3-11,77.0,70.9,67.0,64.0,62.1,59.0,83,74,59,30.13,29.97,7,4,16,0.00
2013-3-12,81.0,73.6,67.0,70.0,66.7,63.0,92,79,66,30.01,29.92,7,3,16,0.00
2013-3-13,74.0,65.1,56.0,67.0,57.2,49.0,95,77,43,30.14,29.99,9,2,16,0.00
2013-3-14,70.0,60.2,52.0,54.0,49.3,45.0,96,70,42,30.22,30.11,7,3,18,0.00
2013-3-15,73.0,61.5,50.0,56.0,51.7,46.0,90,72,46,30.27,30.16,5,2,13,0.00
2013-3-16,76.0,63.4,50.0,60.0,54.8,49.0,99,76,50,30.21,30.09,7,2,15,0.00
2013-3-17,76.0,66.1,54.0,63.0,59.2,53.0,98,80,61,30.17,30.04,9,2,15,0.00
2013-3-18,80.0,70.6,64.0,71.0,66.1,62.0,99,87,69,30.09,29.96,8,2,17,0.83
2013-3-19,82.0,71.9,66.0,70.0,67.6,65.0,99,88,65,30.03,29.87,6,1,14,0.83
2013-3-20,83.0,73.8,61.0,72.0,65.6,60.0,100,77,61,29.98,29.82,10,2,20,0.00
2013-3-21,76.0,66.3,55.0,63.0,56.1,50.0,96,73,40,29.96,29.84,6,2,15,0.01
2013-3-22,76.0,65.3,52.0,71.0,59.5,51.0,100,83,63,30.02,29.91,8,2,16,0.01
2013-3-23,88.0,78.2,69.0,75.0,72.2,68.0,100,83,58,29.99,29.79,8,2,15,0.00
2013-3-24,89.0,78.9,71.0,76.0,72.5,67.0,99,83,59,29.90,29.69,13,5,30,0.43
2013-3-25,80.0,72.8,62.0,73.0,60.6,40.0,99,70,34,30.00,29.75,7,2,13,0.43
2013-3-26,68.0,60.1,52.0,47.0,40.8,34.0,69,50,31,30.23,30.00,7,4,20,0.00
2013-3-27,70.0,56.6,46.0,50.0,42.8,35.0,86,61,34,30.27,30.19,6,2,13,0.00
2013-3-28,73.0,59.6,47.0,54.0,47.7,44.0,93,68,38,30.29,30.19,5,2,12,0.00
2013-3-29,75.0,62.6,49.0,56.0,51.8,47.0,94,71,46,30.31,30.22,6,2,15,0.00
2013-3-30,75.0,64.7,52.0,62.0,54.1,51.0,99,72,45,30.28,30.18,7,2,15,0.00
2013-3-31,80.0,69.6,55.0,68.0,61.2,-99.9,98,79,62,30.21,30.05,7,2,16,0.00
2013-4-1,87.0,75.9,67.0,73.0,66.9,64.0,98,76,49,30.07,29.94,10,3,20,0.00
2013-4-2,84.0,73.5,66.0,69.0,66.9,65.0,99,81,58,30.09,30.00,6,2,13,0.00
2013-4-3,82.0,75.6,68.0,72.0,69.2,66.0,96,81,67,30.08,30.00,7,3,17,0.00
2013-4-4,84.0,74.9,68.0,75.0,70.7,67.0,98,87,72,30.06,29.91,6,3,17,0.54
2013-4-5,72.0,68.5,65.0,70.0,66.8,64.0,98,95,86,30.01,29.83,7,2,16,0.91
2013-4-6,78.0,69.0,58.0,67.0,62.5,57.0,97,81,58,30.09,29.92,8,3,18,0.07
2013-4-7,78.0,72.7,66.0,67.0,63.8,61.0,89,74,64,30.15,30.04,7,3,15,0.00
2013-4-8,81.0,70.2,59.0,69.0,63.4,58.0,100,80,59,30.14,30.06,6,1,11,0.00
2013-4-9,80.0,74.5,68.0,70.0,67.7,65.0,95,80,67,30.16,30.06,8,3,15,0.00
2013-4-10,83.0,76.5,71.0,74.0,71.0,68.0,92,83,72,30.12,30.01,8,3,15,0.00
2013-4-11,82.0,78.0,75.0,74.0,72.8,71.0,90,84,75,30.03,29.91,9,5,21,0.00
2013-4-12,86.0,79.5,73.0,78.0,75.0,71.0,97,87,73,29.96,29.85,8,4,17,0.51
2013-4-13,84.0,76.8,72.0,78.0,73.3,69.0,99,90,73,29.97,29.89,5,1,15,0.55
2013-4-14,86.0,77.8,70.0,77.0,73.3,69.0,100,87,71,29.98,29.90,9,3,18,0.01
2013-4-15,91.0,77.1,70.0,78.0,72.9,68.0,99,88,62,30.06,29.93,8,2,23,0.42
2013-4-16,85.0,77.1,69.0,78.0,73.2,69.0,100,88,74,30.14,30.04,8,3,16,0.53
2013-4-17,84.0,77.1,69.0,72.0,69.1,64.0,97,77,53,30.13,30.03,7,2,14,0.01
2013-4-18,85.0,78.5,70.0,75.0,71.9,67.0,96,81,69,30.07,29.99,7,3,17,0.00
2013-4-19,86.0,81.0,77.0,75.0,73.6,72.0,89,79,64,30.06,29.97,8,4,21,0.00
2013-4-20,90.0,77.7,72.0,79.0,73.4,70.0,96,87,61,30.09,29.98,8,2,16,0.10
2013-4-21,84.0,76.8,71.0,77.0,72.4,70.0,98,87,75,30.10,29.99,9,2,17,0.02
2013-4-22,86.0,75.1,71.0,73.0,70.9,69.0,98,87,64,30.06,29.95,8,2,20,0.03
2013-4-23,83.0,75.0,67.0,70.0,67.3,63.0,99,78,59,30.10,29.96,9,3,18,0.01
2013-4-24,82.0,75.1,64.0,69.0,65.2,61.0,97,72,59,30.14,30.04,7,2,13,0.00
2013-4-25,83.0,74.9,64.0,67.0,64.3,62.0,95,71,51,30.21,30.09,7,2,15,0.00
2013-4-26,83.0,74.6,62.0,70.0,66.1,60.0,98,76,60,30.23,30.13,7,2,16,0.00
2013-4-27,81.0,76.4,70.0,69.0,66.9,64.0,84,73,62,30.22,30.10,9,3,17,1.23
2013-4-28,82.0,76.7,73.0,67.0,64.1,-99.9,80,68,54,30.14,30.01,8,3,15,1.23
2013-4-29,83.0,76.8,70.0,72.0,69.1,65.0,89,78,64,30.04,29.95,7,2,16,0.00
2013-4-30,83.0,74.1,69.0,76.0,71.2,68.0,99,91,71,30.01,29.93,6,0,16,1.04
2013-5-1,84.0,72.9,67.0,76.0,70.4,67.0,100,93,71,30.01,29.94,6,1,16,0.37
2013-5-2,77.0,71.4,68.0,74.0,70.4,68.0,100,97,88,29.97,29.82,9,2,16,2.14
2013-5-3,88.0,75.4,68.0,73.0,70.4,67.0,98,86,55,29.84,29.68,7,3,15,0.30
2013-5-4,86.0,75.8,67.0,73.0,69.7,67.0,100,83,59,29.80,29.70,7,2,15,0.22
2013-5-5,82.0,73.7,65.0,69.0,64.7,56.0,99,76,44,29.94,29.76,7,2,14,0.01
2013-5-6,84.0,72.2,58.0,69.0,63.0,56.0,98,74,56,30.02,29.93,8,1,17,0.00
2013-5-7,84.0,72.5,61.0,67.0,61.9,58.0,90,71,49,30.07,29.98,7,2,15,0.00
2013-5-8,86.0,73.7,60.0,67.0,62.7,59.0,98,72,42,30.14,30.04,6,1,13,0.00
2013-5-9,88.0,77.0,65.0,74.0,68.6,62.0,93,77,50,30.14,30.07,6,0,12,0.00
2013-5-10,88.0,77.6,71.0,76.0,70.4,-99.9,100,83,60,30.14,30.03,6,1,16,0.22
2013-5-11,88.0,79.1,72.0,78.0,74.1,71.0,99,86,67,30.09,29.98,6,1,16,0.66
2013-5-12,89.0,76.7,70.0,78.0,71.7,-99.9,100,88,60,30.07,29.95,3,1,20,0.77
2013-5-13,87.0,77.1,70.0,74.0,70.5,67.0,100,81,57,30.10,30.00,7,1,16,0.11
2013-5-14,81.0,75.1,68.0,67.0,63.3,59.0,88,68,51,30.19,30.08,7,2,15,0.01
2013-5-15,82.0,74.5,64.0,68.0,63.7,59.0,94,70,55,30.21,30.11,7,2,16,0.00
2013-5-16,83.0,68.6,62.0,68.0,41.5,-99.9,96,72,58,30.13,30.06,5,1,12,0.00
2013-5-17,83.0,75.0,67.0,75.0,65.7,-99.9,98,85,73,30.10,30.02,9,2,14,0.25
2013-5-18,85.0,77.7,70.0,77.0,72.7,69.0,99,85,72,30.11,30.05,6,1,14,0.35
2013-5-19,86.0,78.7,70.0,74.0,71.6,69.0,99,80,65,30.11,30.01,7,2,13,0.01
2013-5-20,80.0,75.3,69.0,75.0,72.5,68.0,98,91,81,30.09,29.99,5,1,13,1.75
2013-5-21,84.0,75.1,68.0,75.0,71.5,67.0,100,90,72,30.07,29.95,7,2,16,1.46
2013-5-22,86.0,76.9,72.0,76.0,73.1,71.0,98,88,71,29.98,29.91,7,1,19,0.27
2013-5-23,92.0,80.8,73.0,78.0,74.0,71.0,99,82,52,30.01,29.91,5,2,13,0.01
2013-5-24,92.0,82.9,74.0,77.0,73.2,65.0,99,75,44,30.08,29.96,7,2,16,0.01
2013-5-25,86.0,79.7,75.0,74.0,70.0,66.0,94,73,56,30.18,30.05,8,4,17,0.02
2013-5-26,85.0,77.6,68.0,71.0,66.8,62.0,95,70,56,30.19,30.12,6,3,15,0.02
2013-5-27,85.0,78.7,72.0,74.0,70.1,64.0,87,75,68,30.17,30.09,8,4,15,0.00
2013-5-28,83.0,78.2,74.0,76.0,73.2,71.0,96,85,75,30.13,30.06,10,5,19,0.08
2013-5-29,81.0,75.0,71.0,76.0,72.7,70.0,99,93,78,30.11,30.03,8,3,19,4.13
2013-5-30,82.0,77.2,73.0,76.0,72.9,69.0,96,87,73,30.09,30.02,12,6,27,0.59
2013-5-31,84.0,77.0,74.0,76.0,73.9,72.0,98,91,78,30.08,30.02,9,4,17,1.12
2013-6-1,85.0,77.8,74.0,78.0,75.2,73.0,99,92,77,30.05,29.98,7,2,15,0.87
2013-6-2,89.0,81.1,73.0,78.0,73.3,-99.9,98,83,65,30.02,29.93,6,1,11,0.01
2013-6-3,87.0,77.8,72.0,78.0,74.3,71.0,99,90,69,30.04,29.93,10,1,18,1.66
2013-6-4,86.0,77.7,74.0,78.0,74.9,72.0,99,92,74,30.06,29.96,6,0,11,1.19
2013-6-5,83.0,80.3,78.0,78.0,76.3,74.0,92,88,82,30.03,29.91,5,2,10,0.03
2013-6-6,87.0,78.5,73.0,80.0,75.7,72.0,97,92,78,29.93,29.77,11,4,25,2.25
2013-6-7,89.0,77.5,73.0,80.0,74.3,72.0,97,91,69,29.99,29.84,7,2,16,0.86
2013-6-8,83.0,77.3,73.0,79.0,75.1,72.0,97,93,84,30.13,29.97,4,1,14,2.31
2013-6-9,87.0,80.7,75.0,78.0,75.3,73.0,95,84,69,30.14,30.04,8,3,17,0.35
2013-6-10,89.0,82.8,78.0,79.0,76.5,74.0,89,82,71,30.10,30.02,7,3,14,0.02
2013-6-11,88.0,82.3,78.0,79.0,76.5,73.0,89,83,69,30.10,30.02,7,2,19,0.02
2013-6-12,91.0,80.6,76.0,79.0,74.8,69.0,88,83,68,30.08,30.03,4,0,11,0.01
2013-6-13,90.0,80.8,75.0,79.0,72.8,63.0,82,77,63,30.06,29.95,5,1,11,0.30
2013-6-14,92.0,82.1,74.0,78.0,73.0,56.0,82,74,53,29.98,29.89,8,2,20,0.45
2013-6-15,93.0,84.1,74.0,78.0,73.5,53.0,81,71,46,30.06,29.93,6,2,13,0.34
2013-6-16,90.0,85.7,78.0,78.0,75.7,67.0,80,73,61,30.10,30.03,6,3,13,0.00
2013-6-17,91.0,85.4,76.0,80.0,76.1,55.0,80,74,48,30.09,30.02,7,3,15,0.00
2013-6-18,91.0,85.1,76.0,79.0,74.4,53.0,80,71,41,30.08,29.99,7,2,15,0.00
2013-6-19,91.0,83.7,78.0,79.0,74.5,56.0,80,74,46,30.06,29.99,8,2,14,0.49
2013-6-20,92.0,83.7,75.0,78.0,72.2,57.0,80,69,50,30.09,30.04,7,2,14,0.01
2013-6-22,90.0,86.9,82.0,77.0,75.1,74.0,79,68,61,30.11,30.05,7,3,12,0.00
2013-6-23,88.0,83.2,77.0,78.0,74.9,65.0,80,76,67,30.14,30.06,8,3,15,0.24